createdAt,value
2023-01-17T00:02:23.475Z,3.80
2023-01-17T00:05:11.564Z,3.80
2023-01-17T00:07:57.751Z,3.80
2023-01-17T00:10:29.382Z,3.80
2023-01-17T00:13:00.412Z,3.80
2023-01-17T00:15:32.662Z,3.80
2023-01-17T00:18:01.837Z,3.80
2023-01-17T00:20:50.336Z,3.80
2023-01-17T00:23:39.166Z,3.70
2023-01-17T00:26:14.861Z,3.70
2023-01-17T00:28:44.294Z,3.60
2023-01-17T00:31:16.058Z,3.60
2023-01-17T00:33:43.959Z,3.60
2023-01-17T00:36:12.753Z,3.50
2023-01-17T00:38:42.066Z,3.60
2023-01-17T00:41:12.758Z,3.60
2023-01-17T00:43:59.353Z,3.60
2023-01-17T00:46:46.941Z,3.70
2023-01-17T00:49:33.935Z,3.70
2023-01-17T00:52:20.418Z,3.60
2023-01-17T00:55:06.663Z,3.60
2023-01-17T00:57:53.149Z,3.60
2023-01-17T01:00:39.538Z,3.60
2023-01-17T01:03:30.051Z,3.60
2023-01-17T01:06:16.812Z,3.50
2023-01-17T01:09:03.204Z,3.60
2023-01-17T01:11:49.186Z,3.60
2023-01-17T01:14:35.734Z,3.60
2023-01-17T01:17:22.056Z,3.70
2023-01-17T01:20:09.415Z,3.80
2023-01-17T01:22:55.966Z,3.90
2023-01-17T01:25:42.333Z,3.90
2023-01-17T01:28:31.668Z,3.80
2023-01-17T01:31:18.777Z,3.80
2023-01-17T01:33:47.581Z,3.80
2023-01-17T01:36:17.760Z,3.70
2023-01-17T01:38:47.120Z,3.70
2023-01-17T01:41:15.805Z,3.70
2023-01-17T01:43:48.553Z,3.70
2023-01-17T01:46:23.260Z,3.70
2023-01-17T01:48:56.214Z,3.70
2023-01-17T01:51:34.177Z,3.70
2023-01-17T01:54:08.874Z,3.80
2023-01-17T01:56:39.264Z,3.80
2023-01-17T01:59:12.525Z,3.80
2023-01-17T02:01:41.375Z,3.80
2023-01-17T02:04:11.275Z,3.80
2023-01-17T02:06:47.103Z,3.90
2023-01-17T02:09:19.585Z,3.90
2023-01-17T02:11:50.938Z,3.90
2023-01-17T02:14:22.379Z,4.00
2023-01-17T02:17:09.169Z,4.00
2023-01-17T02:20:29.871Z,4.00
2023-01-17T02:24:01.921Z,4.10
2023-01-17T02:26:55.079Z,4.00
2023-01-17T02:30:14.782Z,3.90
2023-01-17T02:33:11.412Z,4.00
2023-01-17T02:35:54.340Z,4.00
2023-01-17T02:38:38.575Z,3.90
2023-01-17T02:41:14.767Z,4.00
2023-01-17T02:43:43.925Z,4.00
2023-01-17T02:46:13.075Z,4.00
2023-01-17T02:48:44.072Z,3.90
2023-01-17T02:51:47.468Z,3.90
2023-01-17T02:54:42.397Z,3.90
2023-01-17T02:57:34.647Z,3.90
2023-01-17T03:00:14.395Z,3.80
2023-01-17T03:02:58.495Z,3.80
2023-01-17T03:05:37.822Z,3.90
2023-01-17T03:08:08.600Z,3.90
2023-01-17T03:10:38.323Z,4.00
2023-01-17T03:13:07.122Z,4.00
2023-01-17T03:15:35.872Z,4.10
2023-01-17T03:18:11.626Z,4.10
2023-01-17T03:20:41.879Z,4.20
2023-01-17T03:23:10.641Z,4.10
2023-01-17T03:25:39.413Z,4.10
2023-01-17T03:28:08.163Z,4.10
2023-01-17T03:30:36.876Z,4.10
2023-01-17T03:33:05.855Z,4.10
2023-01-17T03:35:34.674Z,4.10
2023-01-17T03:38:04.890Z,4.10
2023-01-17T03:40:33.805Z,4.10
2023-01-17T03:43:02.602Z,4.10
2023-01-17T03:45:31.325Z,4.10
2023-01-17T03:48:01.011Z,4.10
2023-01-17T03:50:29.865Z,4.10
2023-01-17T03:52:58.776Z,4.10
2023-01-17T03:55:29.284Z,4.10
2023-01-17T03:57:58.013Z,4.00
2023-01-17T04:00:26.822Z,4.00
2023-01-17T04:02:55.517Z,4.10
2023-01-17T04:05:24.525Z,4.10
2023-01-17T04:07:53.276Z,4.10
2023-01-17T04:10:22.063Z,4.20
2023-01-17T04:12:52.460Z,4.20
2023-01-17T04:15:21.349Z,4.20
2023-01-17T04:17:50.169Z,4.20
2023-01-17T04:20:30.979Z,4.20
2023-01-17T04:22:59.917Z,4.20
2023-01-17T04:25:30.612Z,4.20
2023-01-17T04:28:03.610Z,4.20
2023-01-17T04:30:33.760Z,4.20
2023-01-17T04:33:02.984Z,4.10
2023-01-17T04:35:33.521Z,4.10
2023-01-17T04:38:02.337Z,4.20
2023-01-17T04:40:31.090Z,4.30
2023-01-17T04:43:01.218Z,4.30
2023-01-17T04:45:29.995Z,4.20
2023-01-17T04:48:05.080Z,4.20
2023-01-17T04:50:34.422Z,4.20
2023-01-17T04:53:03.192Z,4.20
2023-01-17T04:55:32.102Z,4.20
2023-01-17T04:58:02.339Z,4.20
2023-01-17T05:00:31.339Z,4.20
2023-01-17T05:03:00.122Z,4.10
2023-01-17T05:05:29.082Z,4.20
2023-01-17T05:07:59.517Z,4.20
2023-01-17T05:10:28.534Z,4.30
2023-01-17T05:12:58.699Z,4.30
2023-01-17T05:15:29.914Z,4.40
2023-01-17T05:17:58.757Z,4.40
2023-01-17T05:20:28.913Z,4.40
2023-01-17T05:22:59.498Z,4.50
2023-01-17T05:25:31.183Z,4.50
2023-01-17T05:28:01.147Z,4.50
2023-01-17T05:30:35.091Z,4.50
2023-01-17T05:33:03.993Z,4.50
2023-01-17T05:35:33.986Z,4.50
2023-01-17T05:38:03.481Z,4.50
2023-01-17T05:40:34.828Z,4.50
2023-01-17T05:43:04.403Z,4.50
2023-01-17T05:45:35.689Z,4.50
2023-01-17T05:48:06.886Z,4.50
2023-01-17T05:50:38.576Z,4.50
2023-01-17T05:53:10.234Z,4.50
2023-01-17T05:55:40.470Z,4.50
2023-01-17T05:58:15.312Z,4.50
2023-01-17T06:00:46.076Z,4.50
2023-01-17T06:03:15.572Z,4.50
2023-01-17T06:05:45.051Z,4.50
2023-01-17T06:08:13.843Z,4.60
2023-01-17T06:10:42.653Z,4.60
2023-01-17T06:13:15.405Z,4.60
2023-01-17T06:15:45.644Z,4.60
2023-01-17T06:18:17.785Z,4.60
2023-01-17T06:20:47.062Z,4.60
2023-01-17T06:23:16.768Z,4.60
2023-01-17T06:25:47.879Z,4.60
2023-01-17T06:28:19.841Z,4.60
2023-01-17T06:30:50.898Z,4.60
2023-01-17T06:33:19.683Z,4.60
2023-01-17T06:35:52.883Z,4.60
2023-01-17T06:38:22.029Z,4.60
2023-01-17T06:40:51.053Z,4.60
2023-01-17T06:43:19.856Z,4.50
2023-01-17T06:45:51.378Z,4.50
2023-01-17T06:48:20.251Z,4.50
2023-01-17T06:50:49.907Z,4.50
2023-01-17T06:53:18.714Z,4.40
2023-01-17T06:55:47.495Z,4.40
2023-01-17T06:58:16.247Z,4.40
2023-01-17T07:00:45.015Z,4.40
2023-01-17T07:03:21.359Z,4.40
2023-01-17T07:05:50.704Z,4.40
2023-01-17T07:08:21.068Z,4.40
2023-01-17T07:10:50.449Z,4.40
2023-01-17T07:13:19.248Z,4.40
2023-01-17T07:15:47.976Z,4.40
2023-01-17T07:18:20.760Z,4.40
2023-01-17T07:20:49.782Z,4.40
2023-01-17T07:23:19.293Z,4.40
2023-01-17T07:25:53.610Z,4.40
2023-01-17T07:28:23.085Z,4.40
2023-01-17T07:30:52.047Z,4.40
2023-01-17T07:33:22.777Z,4.40
2023-01-17T07:35:51.525Z,4.40
2023-01-17T07:38:21.880Z,4.40
2023-01-17T07:40:50.699Z,4.40
2023-01-17T07:43:19.408Z,4.40
2023-01-17T07:45:50.932Z,4.40
2023-01-17T07:48:23.664Z,4.40
2023-01-17T07:50:57.486Z,4.40
2023-01-17T07:53:28.044Z,4.40
2023-01-17T07:55:57.165Z,4.40
2023-01-17T07:58:26.071Z,4.40
2023-01-17T08:00:55.067Z,4.40
2023-01-17T08:03:26.614Z,4.40
2023-01-17T08:05:57.822Z,4.50
2023-01-17T08:08:26.586Z,4.50
2023-01-17T08:10:55.515Z,4.50
2023-01-17T08:13:24.858Z,4.50
2023-01-17T08:15:54.610Z,4.50
2023-01-17T08:18:24.811Z,4.60
2023-01-17T08:20:54.293Z,4.70
2023-01-17T08:23:23.791Z,4.80
2023-01-17T08:25:52.616Z,4.80
2023-01-17T08:28:21.454Z,4.80
2023-01-17T08:30:50.230Z,4.90
2023-01-17T08:33:18.940Z,5.00
2023-01-17T08:35:55.090Z,4.90
2023-01-17T08:38:24.624Z,5.00
2023-01-17T08:40:53.440Z,5.00
2023-01-17T08:43:22.231Z,5.10
2023-01-17T08:45:56.010Z,5.20
2023-01-17T08:48:25.075Z,5.20
2023-01-17T08:50:55.360Z,5.30
2023-01-17T08:53:24.094Z,5.40
2023-01-17T08:56:00.349Z,5.40
2023-01-17T08:58:30.997Z,5.50
2023-01-17T09:01:03.443Z,5.60
2023-01-17T09:03:32.897Z,5.70
2023-01-17T09:06:09.020Z,5.80
2023-01-17T09:08:38.712Z,5.90
2023-01-17T09:11:09.645Z,6.10
2023-01-17T09:13:39.148Z,6.40
2023-01-17T09:16:09.135Z,6.60
2023-01-17T09:18:38.431Z,6.90
2023-01-17T09:21:16.983Z,7.00
2023-01-17T09:23:46.678Z,7.30
2023-01-17T09:26:21.403Z,7.60
2023-01-17T09:28:50.456Z,8.00
2023-01-17T09:31:21.894Z,8.20
2023-01-17T09:33:51.404Z,8.30
2023-01-17T09:36:22.215Z,8.30
2023-01-17T09:38:51.551Z,8.40
2023-01-17T09:41:28.742Z,8.50
2023-01-17T09:44:06.052Z,8.60
2023-01-17T09:46:42.738Z,8.60
2023-01-17T09:49:23.926Z,8.50
2023-01-17T09:51:55.686Z,8.40
2023-01-17T09:54:35.542Z,8.40
2023-01-17T09:57:18.681Z,8.40
2023-01-17T10:00:03.497Z,8.60
2023-01-17T10:03:14.730Z,8.70
2023-01-17T10:06:04.641Z,8.80
2023-01-17T10:09:13.348Z,8.60
2023-01-17T10:12:06.355Z,8.60
2023-01-17T10:14:57.551Z,9.00
2023-01-17T10:17:43.931Z,9.70
2023-01-17T10:20:35.351Z,10.30
2023-01-17T10:23:26.887Z,10.70
2023-01-17T10:26:01.775Z,11.00
2023-01-17T10:28:39.112Z,11.00
2023-01-17T10:31:15.527Z,11.20
2023-01-17T10:33:53.827Z,11.50
2023-01-17T10:36:25.455Z,11.80
2023-01-17T10:38:58.293Z,12.00
2023-01-17T10:41:34.411Z,12.40
2023-01-17T10:44:19.971Z,12.60
2023-01-17T10:46:57.351Z,12.80
2023-01-17T10:49:28.947Z,12.90
2023-01-17T10:52:20.354Z,12.60
2023-01-17T10:55:18.727Z,12.20
2023-01-17T10:57:51.647Z,11.90
2023-01-17T11:00:49.317Z,11.60
2023-01-17T11:03:20.977Z,11.30
2023-01-17T11:06:19.729Z,11.10
2023-01-17T11:08:55.401Z,10.80
2023-01-17T11:11:30.273Z,10.80
2023-01-17T11:14:04.331Z,10.90
2023-01-17T11:16:33.780Z,11.00
2023-01-17T11:19:17.679Z,11.20
2023-01-17T11:21:57.756Z,11.50
2023-01-17T11:24:35.964Z,11.80
2023-01-17T11:27:07.689Z,12.10
2023-01-17T11:29:40.826Z,12.20
2023-01-17T11:32:32.180Z,12.10
2023-01-17T11:35:19.120Z,12.20
2023-01-17T11:38:08.190Z,12.50
2023-01-17T11:40:42.893Z,12.40
2023-01-17T11:43:23.441Z,12.30
2023-01-17T11:46:19.118Z,11.80
2023-01-17T11:48:55.074Z,11.50
2023-01-17T11:51:30.521Z,11.30
2023-01-17T11:54:18.038Z,11.00
2023-01-17T11:56:47.339Z,10.60
2023-01-17T11:59:27.829Z,10.30
2023-01-17T12:02:32.292Z,10.20
2023-01-17T12:05:18.695Z,10.10
2023-01-17T12:08:00.844Z,10.10
2023-01-17T12:10:37.420Z,9.80
2023-01-17T12:13:39.332Z,9.80
2023-01-17T12:16:31.277Z,9.70
2023-01-17T12:19:41.355Z,9.50
2023-01-17T12:22:29.597Z,9.30
2023-01-17T12:25:15.013Z,9.20
2023-01-17T12:28:01.015Z,9.20
2023-01-17T12:30:55.538Z,9.30
2023-01-17T12:33:37.367Z,9.40
2023-01-17T12:36:17.726Z,9.30
2023-01-17T12:38:49.219Z,9.20
2023-01-17T12:41:26.675Z,9.00
2023-01-17T12:44:01.509Z,9.00
2023-01-17T12:46:38.716Z,9.00
2023-01-17T12:49:25.664Z,8.90
2023-01-17T12:52:07.196Z,8.70
2023-01-17T12:54:41.143Z,8.50
2023-01-17T12:57:18.872Z,8.50
2023-01-17T12:59:55.784Z,8.60
2023-01-17T13:02:39.855Z,8.60
2023-01-17T13:05:15.785Z,8.50
2023-01-17T13:07:53.138Z,8.60
2023-01-17T13:10:36.156Z,8.60
2023-01-17T13:13:22.193Z,8.50
2023-01-17T13:15:55.077Z,8.40
2023-01-17T13:18:29.906Z,8.30
2023-01-17T13:21:23.450Z,8.30
2023-01-17T13:24:31.601Z,8.30
2023-01-17T13:27:36.576Z,8.20
2023-01-17T13:30:43.481Z,8.10
2023-01-17T13:33:48.042Z,8.10
2023-01-17T13:36:48.839Z,8.20
2023-01-17T13:40:08.710Z,8.00
2023-01-17T13:42:54.802Z,8.10
2023-01-17T13:45:28.585Z,8.10
2023-01-17T13:48:27.266Z,8.10
2023-01-17T13:50:57.132Z,8.10
2023-01-17T13:53:59.571Z,8.10
2023-01-17T13:56:36.084Z,7.90
2023-01-17T13:59:32.108Z,7.80
2023-01-17T14:02:01.004Z,7.80
2023-01-17T14:05:11.332Z,7.80
2023-01-17T14:07:48.872Z,7.70
2023-01-17T14:10:33.891Z,7.70
2023-01-17T14:13:07.547Z,7.60
2023-01-17T14:15:50.979Z,7.50
2023-01-17T14:18:35.153Z,7.50
2023-01-17T14:21:14.167Z,7.50
2023-01-17T14:23:57.531Z,7.50
2023-01-17T14:26:47.431Z,7.40
2023-01-17T14:29:59.076Z,7.40
2023-01-17T14:32:32.671Z,7.30
2023-01-17T14:35:01.779Z,7.30
2023-01-17T14:37:45.992Z,7.20
2023-01-17T14:40:21.882Z,7.10
2023-01-17T14:43:01.327Z,7.10
2023-01-17T14:45:34.288Z,7.20
2023-01-17T14:48:07.261Z,7.20
2023-01-17T14:50:39.442Z,7.10
2023-01-17T14:53:20.726Z,7.00
2023-01-17T14:55:57.710Z,6.90
2023-01-17T14:58:30.566Z,6.70
2023-01-17T15:01:05.936Z,6.60
2023-01-17T15:03:45.417Z,6.60
2023-01-17T15:06:19.879Z,6.60
2023-01-17T15:08:50.153Z,6.70
2023-01-17T15:11:25.406Z,6.80
2023-01-17T15:13:59.252Z,6.80
2023-01-17T15:16:33.809Z,6.80
2023-01-17T15:19:04.119Z,6.70
2023-01-17T15:21:36.976Z,6.70
2023-01-17T15:24:10.198Z,6.70
2023-01-17T15:26:43.464Z,6.70
2023-01-17T15:29:19.437Z,6.60
2023-01-17T15:31:52.745Z,6.70
2023-01-17T15:34:30.468Z,6.70
2023-01-17T15:37:02.617Z,6.70
2023-01-17T15:39:35.568Z,6.70
2023-01-17T15:42:08.674Z,6.70
2023-01-17T15:44:48.605Z,6.70
2023-01-17T15:47:30.654Z,6.70
2023-01-17T15:50:00.944Z,6.70
2023-01-17T15:52:30.700Z,6.60
2023-01-17T15:55:12.546Z,6.60
2023-01-17T15:57:44.130Z,6.60
2023-01-17T16:00:23.995Z,6.50
2023-01-17T16:02:57.704Z,6.40
2023-01-17T16:05:43.959Z,6.40
2023-01-17T16:08:39.670Z,6.40
2023-01-17T16:11:13.151Z,6.30
2023-01-17T16:13:43.475Z,6.30
2023-01-17T16:16:20.192Z,6.30
2023-01-17T16:18:58.894Z,6.30
2023-01-17T16:21:30.205Z,6.10
2023-01-17T16:24:00.811Z,6.10
2023-01-17T16:26:30.229Z,6.20
2023-01-17T16:28:59.036Z,6.20
2023-01-17T16:31:27.820Z,6.00
2023-01-17T16:33:58.089Z,5.90
2023-01-17T16:36:26.904Z,5.90
2023-01-17T16:38:55.907Z,5.80
2023-01-17T16:41:24.878Z,5.70
2023-01-17T16:44:03.114Z,5.60
2023-01-17T16:46:32.193Z,5.40
2023-01-17T16:49:03.168Z,5.30
2023-01-17T16:51:32.565Z,5.40
2023-01-17T16:54:03.026Z,5.40
2023-01-17T16:56:31.913Z,5.30
2023-01-17T16:59:00.665Z,5.20
2023-01-17T17:01:29.520Z,5.10
2023-01-17T17:03:58.368Z,5.10
2023-01-17T17:06:28.598Z,5.10
2023-01-17T17:08:57.338Z,5.10
2023-01-17T17:11:26.310Z,5.00
2023-01-17T17:13:55.356Z,4.90
2023-01-17T17:16:29.963Z,4.90
2023-01-17T17:19:02.670Z,4.90
2023-01-17T17:21:34.014Z,4.90
2023-01-17T17:24:03.723Z,4.90
2023-01-17T17:26:35.652Z,4.80
2023-01-17T17:29:05.928Z,4.90
2023-01-17T17:31:34.936Z,4.90
2023-01-17T17:34:07.402Z,4.90
2023-01-17T17:36:38.853Z,4.80
2023-01-17T17:39:10.289Z,4.90
2023-01-17T17:41:43.346Z,4.90
2023-01-17T17:44:12.911Z,4.80
2023-01-17T17:46:42.231Z,4.70
2023-01-17T17:49:11.086Z,4.70
2023-01-17T17:51:42.241Z,4.70
2023-01-17T17:54:14.077Z,4.70
2023-01-17T17:56:47.477Z,4.70
2023-01-17T17:59:19.563Z,4.70
2023-01-17T18:01:49.585Z,4.60
2023-01-17T18:04:19.102Z,4.70
2023-01-17T18:06:49.489Z,4.70
2023-01-17T18:09:18.790Z,4.60
2023-01-17T18:11:47.738Z,4.50
2023-01-17T18:14:20.974Z,4.60
2023-01-17T18:16:50.855Z,4.60
2023-01-17T18:19:22.633Z,4.60
2023-01-17T18:21:53.686Z,4.60
2023-01-17T18:24:24.789Z,4.60
2023-01-17T18:26:56.083Z,4.60
2023-01-17T18:29:26.532Z,4.60
2023-01-17T18:31:56.969Z,4.60
2023-01-17T18:34:29.438Z,4.50
2023-01-17T18:36:59.990Z,4.60
2023-01-17T18:39:30.959Z,4.50
2023-01-17T18:42:00.405Z,4.50
2023-01-17T18:44:30.164Z,4.50
2023-01-17T18:47:02.117Z,4.60
2023-01-17T18:49:31.469Z,4.50
2023-01-17T18:52:01.821Z,4.60
2023-01-17T18:54:31.993Z,4.50
2023-01-17T18:57:00.947Z,4.50
2023-01-17T18:59:29.748Z,4.50
2023-01-17T19:01:58.862Z,4.50
2023-01-17T19:04:29.765Z,4.50
2023-01-17T19:06:58.523Z,4.40
2023-01-17T19:09:28.948Z,4.40
2023-01-17T19:11:58.392Z,4.50
2023-01-17T19:14:27.452Z,4.40
2023-01-17T19:16:57.306Z,4.40
2023-01-17T19:19:26.227Z,4.40
2023-01-17T19:21:55.106Z,4.40
2023-01-17T19:24:23.894Z,4.40
2023-01-17T19:26:54.134Z,4.40
2023-01-17T19:29:23.082Z,4.50
2023-01-17T19:31:51.849Z,4.50
2023-01-17T19:34:20.771Z,4.50
2023-01-17T19:36:49.876Z,4.40
2023-01-17T19:39:18.721Z,4.40
2023-01-17T19:41:47.660Z,4.40
2023-01-17T19:44:17.944Z,4.40
2023-01-17T19:46:47.265Z,4.50
2023-01-17T19:49:20.745Z,4.40
2023-01-17T19:51:50.180Z,4.50
2023-01-17T19:54:19.189Z,4.50
2023-01-17T19:56:48.043Z,4.40
2023-01-17T19:59:20.115Z,4.40
2023-01-17T20:01:49.235Z,4.40
2023-01-17T20:04:18.805Z,4.40
2023-01-17T20:06:48.144Z,4.40
2023-01-17T20:09:16.985Z,4.30
2023-01-17T20:11:46.772Z,4.30
2023-01-17T20:14:17.656Z,4.20
2023-01-17T20:16:48.630Z,4.20
2023-01-17T20:19:17.421Z,4.10
2023-01-17T20:21:46.265Z,4.00
2023-01-17T20:24:16.448Z,4.00
2023-01-17T20:26:45.236Z,4.10
2023-01-17T20:29:18.220Z,4.20
2023-01-17T20:31:47.760Z,4.10
2023-01-17T20:34:18.722Z,4.10
2023-01-17T20:36:48.135Z,4.10
2023-01-17T20:39:17.036Z,4.10
2023-01-17T20:41:46.457Z,4.00
2023-01-17T20:44:18.801Z,4.00
2023-01-17T20:46:48.294Z,4.10
2023-01-17T20:49:20.047Z,4.10
2023-01-17T20:51:50.055Z,4.10
2023-01-17T20:54:20.811Z,4.10
2023-01-17T20:56:49.897Z,4.00
2023-01-17T20:59:23.232Z,4.00
2023-01-17T21:01:53.097Z,4.00
2023-01-17T21:04:26.259Z,4.00
2023-01-17T21:06:55.450Z,4.00
2023-01-17T21:09:24.326Z,3.90
2023-01-17T21:11:54.433Z,3.90
2023-01-17T21:14:24.628Z,3.90
2023-01-17T21:16:53.490Z,3.90
2023-01-17T21:19:24.987Z,3.90
2023-01-17T21:21:53.770Z,3.90
2023-01-17T21:24:22.803Z,3.90
2023-01-17T21:26:52.484Z,3.90
2023-01-17T21:29:23.318Z,3.90
2023-01-17T21:31:53.526Z,3.80
2023-01-17T21:34:25.227Z,3.90
2023-01-17T21:36:54.206Z,3.90
2023-01-17T21:39:22.974Z,3.90
2023-01-17T21:41:51.761Z,3.90
2023-01-17T21:44:23.017Z,3.90
2023-01-17T21:46:56.194Z,3.90
2023-01-17T21:49:25.519Z,3.90
2023-01-17T21:52:11.923Z,3.90
2023-01-17T21:54:58.301Z,3.90
2023-01-17T21:57:44.639Z,3.90
2023-01-17T22:00:15.708Z,3.90
2023-01-17T22:02:47.217Z,3.90
2023-01-17T22:05:19.063Z,3.90
2023-01-17T22:08:01.833Z,4.00
2023-01-17T22:10:31.211Z,3.90
2023-01-17T22:13:00.114Z,3.80
2023-01-17T22:15:28.888Z,3.90
2023-01-17T22:17:59.352Z,3.80
2023-01-17T22:20:28.699Z,3.80
2023-01-17T22:22:57.816Z,3.80
2023-01-17T22:25:26.890Z,3.80
2023-01-17T22:27:55.891Z,3.80
2023-01-17T22:30:24.823Z,3.90
2023-01-17T22:32:53.619Z,3.90
2023-01-17T22:35:24.197Z,3.90
2023-01-17T22:37:54.316Z,4.00
2023-01-17T22:40:26.213Z,3.90
2023-01-17T22:42:55.402Z,3.90
2023-01-17T22:45:25.964Z,3.90
2023-01-17T22:47:54.757Z,3.90
2023-01-17T22:50:25.061Z,4.00
2023-01-17T22:52:53.773Z,3.90
2023-01-17T22:55:22.773Z,3.90
2023-01-17T22:57:51.725Z,3.90
2023-01-17T23:00:21.166Z,4.00
2023-01-17T23:02:49.884Z,3.90
2023-01-17T23:05:18.989Z,3.90
2023-01-17T23:07:52.532Z,3.90
2023-01-17T23:10:35.236Z,3.90
2023-01-17T23:13:04.007Z,4.00
2023-01-17T23:15:49.954Z,4.10
2023-01-17T23:18:36.274Z,4.10
2023-01-17T23:21:05.139Z,4.10
2023-01-17T23:23:35.606Z,4.10
2023-01-17T23:26:04.391Z,4.10
2023-01-17T23:28:32.185Z,4.10
2023-01-17T23:31:05.108Z,4.10
2023-01-17T23:33:34.168Z,4.10
2023-01-17T23:36:03.122Z,4.10
2023-01-17T23:38:34.065Z,4.10
2023-01-17T23:41:24.705Z,4.10
2023-01-17T23:43:54.198Z,4.10
2023-01-17T23:46:25.476Z,4.20
2023-01-17T23:48:55.137Z,4.20
2023-01-17T23:51:24.296Z,4.20
2023-01-17T23:53:57.761Z,4.30
2023-01-17T23:56:28.086Z,4.30
2023-01-17T23:58:56.991Z,4.30
